createdAt,value
2019-03-08T00:01:13.307Z,99.90
2019-03-08T00:03:42.754Z,99.90
2019-03-08T00:06:12.309Z,99.90
2019-03-08T00:08:41.763Z,99.90
2019-03-08T00:11:11.287Z,99.90
2019-03-08T00:13:40.612Z,99.90
2019-03-08T00:16:10.012Z,99.90
2019-03-08T00:18:39.445Z,99.90
2019-03-08T00:21:08.880Z,99.90
2019-03-08T00:23:38.429Z,99.90
2019-03-08T00:26:07.889Z,99.90
2019-03-08T00:28:37.321Z,99.90
2019-03-08T00:31:07.023Z,99.90
2019-03-08T00:33:36.735Z,99.90
2019-03-08T00:36:06.155Z,99.90
2019-03-08T00:38:35.616Z,99.90
2019-03-08T00:41:05.128Z,99.90
2019-03-08T00:43:34.608Z,99.90
2019-03-08T00:46:04.037Z,99.90
2019-03-08T00:48:33.355Z,99.90
2019-03-08T00:51:02.993Z,99.90
2019-03-08T00:53:32.367Z,99.90
2019-03-08T00:56:01.747Z,99.90
2019-03-08T00:58:31.091Z,99.90
2019-03-08T01:01:00.458Z,99.90
2019-03-08T01:03:29.985Z,99.90
2019-03-08T01:05:59.384Z,99.90
2019-03-08T01:08:29.469Z,99.90
2019-03-08T01:10:58.920Z,99.90
2019-03-08T01:13:28.272Z,99.90
2019-03-08T01:15:57.794Z,99.90
2019-03-08T01:18:27.573Z,99.90
2019-03-08T01:20:57.007Z,99.90
2019-03-08T01:23:26.509Z,99.90
2019-03-08T01:25:55.991Z,99.90
2019-03-08T01:28:25.423Z,99.90
2019-03-08T01:30:54.855Z,99.90
2019-03-08T01:33:24.236Z,99.90
2019-03-08T01:35:53.604Z,99.90
2019-03-08T01:38:23.056Z,99.90
2019-03-08T01:40:52.493Z,99.90
2019-03-08T01:43:21.873Z,99.90
2019-03-08T01:45:52.194Z,99.90
2019-03-08T01:48:21.631Z,99.90
2019-03-08T01:50:51.021Z,99.90
2019-03-08T01:53:20.392Z,99.90
2019-03-08T01:55:50.489Z,99.90
2019-03-08T01:58:19.899Z,99.90
2019-03-08T02:00:49.357Z,99.90
2019-03-08T02:03:18.787Z,99.90
2019-03-08T02:05:48.729Z,99.90
2019-03-08T02:08:18.122Z,99.90
2019-03-08T02:10:47.503Z,99.90
2019-03-08T02:13:17.195Z,99.90
2019-03-08T02:15:47.693Z,99.90
2019-03-08T02:18:17.108Z,99.90
2019-03-08T02:20:47.084Z,99.90
2019-03-08T02:23:17.278Z,99.90
2019-03-08T02:25:46.641Z,99.90
2019-03-08T02:28:17.353Z,99.90
2019-03-08T02:30:46.710Z,99.90
2019-03-08T02:33:16.136Z,99.90
2019-03-08T02:35:45.479Z,99.90
2019-03-08T02:38:14.935Z,99.90
2019-03-08T02:40:44.761Z,99.90
2019-03-08T02:43:16.380Z,99.90
2019-03-08T02:45:45.895Z,99.90
2019-03-08T02:48:15.332Z,99.90
2019-03-08T02:50:44.691Z,99.90
2019-03-08T02:53:14.444Z,99.90
2019-03-08T02:55:43.816Z,99.90
2019-03-08T02:58:13.182Z,99.90
2019-03-08T03:00:45.588Z,99.90
2019-03-08T03:03:15.391Z,99.90
2019-03-08T03:05:44.854Z,99.90
2019-03-08T03:08:14.282Z,99.90
2019-03-08T03:10:45.529Z,99.90
2019-03-08T03:13:14.981Z,99.90
2019-03-08T03:15:44.416Z,99.90
2019-03-08T03:18:13.793Z,99.90
2019-03-08T03:20:43.148Z,99.90
2019-03-08T03:23:14.227Z,99.90
2019-03-08T03:25:43.570Z,99.90
2019-03-08T03:28:13.032Z,99.90
2019-03-08T03:30:42.406Z,99.90
2019-03-08T03:33:12.165Z,99.90
2019-03-08T03:35:41.670Z,99.90
2019-03-08T03:38:11.102Z,99.90
2019-03-08T03:40:40.573Z,99.90
2019-03-08T03:43:09.994Z,99.90
2019-03-08T03:45:39.509Z,99.90
2019-03-08T03:48:11.422Z,99.90
2019-03-08T03:50:40.876Z,99.90
2019-03-08T03:53:10.229Z,99.90
2019-03-08T03:55:40.399Z,99.90
2019-03-08T03:58:09.853Z,99.90
2019-03-08T04:00:40.064Z,99.90
2019-03-08T04:03:11.084Z,99.90
2019-03-08T04:05:40.549Z,99.90
2019-03-08T04:08:11.457Z,99.90
2019-03-08T04:10:40.860Z,99.90
2019-03-08T04:13:10.285Z,99.90
2019-03-08T04:15:40.293Z,99.90
2019-03-08T04:18:09.737Z,99.90
2019-03-08T04:20:39.198Z,99.90
2019-03-08T04:23:08.597Z,99.90
2019-03-08T04:25:37.955Z,99.90
2019-03-08T04:28:07.637Z,99.90
2019-03-08T04:30:37.769Z,99.90
2019-03-08T04:33:07.256Z,99.90
2019-03-08T04:35:36.699Z,99.90
2019-03-08T04:38:06.076Z,99.90
2019-03-08T04:40:35.442Z,99.90
2019-03-08T04:43:04.823Z,99.90
2019-03-08T04:45:34.322Z,99.90
2019-03-08T04:48:03.693Z,99.90
2019-03-08T04:50:33.130Z,99.90
2019-03-08T04:53:02.493Z,99.90
2019-03-08T04:55:31.965Z,99.90
2019-03-08T04:58:01.327Z,99.90
2019-03-08T05:00:30.711Z,99.90
2019-03-08T05:03:00.081Z,99.90
2019-03-08T05:05:29.496Z,99.90
2019-03-08T05:07:58.857Z,99.90
2019-03-08T05:10:28.306Z,99.90
2019-03-08T05:12:57.665Z,99.90
2019-03-08T05:15:27.143Z,99.90
2019-03-08T05:17:58.398Z,99.90
2019-03-08T05:20:27.662Z,99.90
2019-03-08T05:22:57.409Z,99.90
2019-03-08T05:25:26.808Z,99.90
2019-03-08T05:27:56.164Z,99.90
2019-03-08T05:30:25.608Z,99.90
2019-03-08T05:32:55.339Z,99.90
2019-03-08T05:35:24.844Z,99.90
2019-03-08T05:37:54.907Z,99.90
2019-03-08T05:40:26.496Z,99.90
2019-03-08T05:42:55.894Z,99.90
2019-03-08T05:45:25.517Z,99.90
2019-03-08T05:47:54.970Z,99.90
2019-03-08T05:50:24.635Z,99.90
2019-03-08T05:52:55.755Z,99.90
2019-03-08T05:55:25.207Z,99.90
2019-03-08T05:57:54.626Z,99.90
2019-03-08T06:00:31.882Z,99.90
2019-03-08T06:02:58.357Z,99.90
2019-03-08T06:05:27.862Z,99.90
2019-03-08T06:07:57.302Z,99.90
2019-03-08T06:10:34.021Z,99.90
2019-03-08T06:13:05.291Z,99.90
2019-03-08T06:15:35.193Z,99.90
2019-03-08T06:18:04.685Z,99.90
2019-03-08T06:20:35.612Z,99.90
2019-03-08T06:23:04.972Z,99.90
2019-03-08T06:25:34.442Z,99.90
2019-03-08T06:28:03.954Z,99.90
2019-03-08T06:30:36.705Z,99.90
2019-03-08T06:33:06.082Z,99.90
2019-03-08T06:35:35.467Z,99.90
2019-03-08T06:38:04.935Z,99.90
2019-03-08T06:40:34.399Z,99.90
2019-03-08T06:43:04.067Z,99.90
2019-03-08T06:45:33.435Z,99.90
2019-03-08T06:48:02.886Z,99.90
2019-03-08T06:50:32.350Z,99.90
2019-03-08T06:53:01.751Z,99.90
2019-03-08T06:55:31.119Z,99.90
2019-03-08T06:58:04.784Z,99.90
2019-03-08T07:00:35.942Z,99.90
2019-03-08T07:03:07.093Z,99.90
2019-03-08T07:05:36.552Z,99.90
2019-03-08T07:08:06.199Z,99.90
2019-03-08T07:10:37.121Z,99.90
2019-03-08T07:13:06.633Z,99.90
2019-03-08T07:15:36.033Z,99.90
2019-03-08T07:18:12.054Z,99.90
2019-03-08T07:20:38.133Z,99.90
2019-03-08T07:23:12.121Z,99.90
2019-03-08T07:25:51.843Z,99.90
2019-03-08T07:28:35.420Z,99.90
2019-03-08T07:31:12.191Z,99.90
2019-03-08T07:33:59.264Z,99.90
2019-03-08T07:36:46.836Z,99.90
2019-03-08T07:39:34.645Z,99.90
2019-03-08T07:42:05.803Z,99.90
2019-03-08T07:44:36.801Z,99.90
2019-03-08T07:47:07.831Z,99.90
2019-03-08T07:49:55.665Z,99.90
2019-03-08T07:52:54.113Z,99.90
2019-03-08T07:55:25.107Z,99.90
2019-03-08T07:58:12.545Z,99.90
2019-03-08T08:00:43.666Z,99.90
2019-03-08T08:03:23.873Z,99.90
2019-03-08T08:05:58.317Z,99.90
2019-03-08T08:08:30.022Z,99.90
2019-03-08T08:11:17.067Z,99.90
2019-03-08T08:14:04.492Z,99.90
2019-03-08T08:16:44.599Z,99.90
2019-03-08T08:19:28.046Z,99.90
2019-03-08T08:22:17.250Z,99.90
2019-03-08T08:24:51.139Z,99.90
2019-03-08T08:27:24.880Z,99.90
2019-03-08T08:29:59.666Z,99.90
2019-03-08T08:32:36.729Z,99.90
2019-03-08T08:35:14.091Z,99.90
2019-03-08T08:37:48.169Z,99.90
2019-03-08T08:40:31.667Z,99.90
2019-03-08T08:43:17.640Z,99.90
2019-03-08T08:45:57.547Z,99.90
2019-03-08T08:48:44.920Z,99.90
2019-03-08T08:51:16.313Z,99.90
2019-03-08T08:53:47.424Z,99.90
2019-03-08T08:56:18.509Z,99.90
2019-03-08T08:59:06.198Z,99.90
2019-03-08T09:01:46.226Z,99.90
2019-03-08T09:04:20.065Z,99.90
2019-03-08T09:06:51.164Z,99.90
2019-03-08T09:09:24.641Z,99.90
2019-03-08T09:11:58.354Z,99.90
2019-03-08T09:14:32.051Z,99.90
2019-03-08T09:17:06.253Z,99.90
2019-03-08T09:19:50.569Z,99.90
2019-03-08T09:22:21.579Z,99.90
2019-03-08T09:25:01.429Z,99.90
2019-03-08T09:27:49.023Z,99.90
2019-03-08T09:30:36.334Z,99.90
2019-03-08T09:33:07.457Z,99.90
2019-03-08T09:35:38.523Z,99.90
2019-03-08T09:38:17.421Z,99.90
2019-03-08T09:40:48.395Z,99.90
2019-03-08T09:43:23.859Z,99.90
2019-03-08T09:45:58.101Z,99.90
2019-03-08T09:48:32.223Z,99.90
2019-03-08T09:51:15.270Z,99.90
2019-03-08T09:53:46.204Z,99.90
2019-03-08T09:56:32.377Z,99.90
2019-03-08T09:59:06.055Z,99.90
2019-03-08T10:01:43.136Z,99.90
2019-03-08T10:04:19.842Z,99.90
2019-03-08T10:07:05.810Z,99.90
2019-03-08T10:09:36.812Z,99.90
2019-03-08T10:12:18.649Z,99.90
2019-03-08T10:15:08.037Z,99.90
2019-03-08T10:17:48.184Z,99.90
2019-03-08T10:20:28.409Z,99.90
2019-03-08T10:23:19.876Z,99.90
2019-03-08T10:25:48.852Z,99.90
2019-03-08T10:28:22.595Z,99.90
2019-03-08T10:30:59.399Z,99.90
2019-03-08T10:33:33.124Z,99.90
2019-03-08T10:36:19.392Z,99.90
2019-03-08T10:38:50.505Z,99.90
2019-03-08T10:41:37.842Z,99.90
2019-03-08T10:44:15.569Z,99.90
2019-03-08T10:46:46.852Z,99.90
2019-03-08T10:49:24.074Z,99.90
2019-03-08T10:51:58.069Z,99.90
2019-03-08T10:54:32.149Z,99.90
2019-03-08T10:57:03.318Z,99.90
2019-03-08T10:59:46.384Z,99.90
2019-03-08T11:02:20.526Z,99.90
2019-03-08T11:04:57.895Z,99.90
2019-03-08T11:07:32.094Z,99.90
2019-03-08T11:10:03.159Z,99.90
2019-03-08T11:12:34.230Z,99.90
2019-03-08T11:15:23.984Z,99.90
2019-03-08T11:17:56.513Z,99.90
2019-03-08T11:20:33.894Z,99.90
2019-03-08T11:23:04.923Z,99.90
2019-03-08T11:25:36.234Z,99.90
2019-03-08T11:28:07.334Z,99.90
2019-03-08T11:30:53.573Z,99.90
2019-03-08T11:33:17.209Z,99.90
2019-03-08T11:35:49.540Z,99.90
2019-03-08T11:38:23.185Z,99.90
2019-03-08T11:41:02.669Z,99.90
2019-03-08T11:43:36.694Z,99.90
2019-03-08T11:46:08.499Z,99.90
2019-03-08T11:48:56.082Z,99.90
2019-03-08T11:51:27.109Z,99.90
2019-03-08T11:53:58.051Z,99.90
2019-03-08T11:56:45.623Z,99.90
2019-03-08T11:59:22.674Z,99.90
2019-03-08T12:01:56.228Z,99.90
2019-03-08T12:04:43.364Z,99.90
2019-03-08T12:07:32.736Z,99.90
2019-03-08T12:10:07.011Z,99.90
2019-03-08T12:12:38.085Z,99.90
2019-03-08T12:15:23.991Z,99.90
2019-03-08T12:18:04.054Z,99.90
2019-03-08T12:20:40.812Z,99.90
2019-03-08T12:23:11.865Z,99.90
2019-03-08T12:25:58.073Z,99.90
2019-03-08T12:28:35.352Z,99.90
2019-03-08T12:31:06.430Z,94.20
2019-03-08T12:33:37.473Z,77.00
2019-03-08T12:36:13.979Z,68.90
2019-03-08T12:38:45.071Z,56.60
2019-03-08T12:41:18.863Z,52.50
2019-03-08T12:43:55.850Z,50.40
2019-03-08T12:46:27.882Z,52.10
2019-03-08T12:48:58.991Z,48.70
2019-03-08T12:51:44.994Z,46.00
2019-03-08T12:54:28.786Z,44.90
2019-03-08T12:57:02.523Z,44.20
2019-03-08T12:59:33.659Z,43.50
2019-03-08T13:02:17.017Z,43.00
2019-03-08T13:04:48.514Z,41.40
2019-03-08T13:07:25.311Z,39.30
2019-03-08T13:09:56.350Z,41.10
2019-03-08T13:12:25.711Z,43.20
2019-03-08T13:14:55.120Z,42.00
2019-03-08T13:17:24.496Z,42.50
2019-03-08T13:19:53.907Z,43.80
2019-03-08T13:22:23.288Z,42.10
2019-03-08T13:24:52.680Z,41.80
2019-03-08T13:27:22.057Z,47.20
2019-03-08T13:29:51.713Z,54.10
2019-03-08T13:32:21.091Z,58.00
2019-03-08T13:34:50.457Z,57.10
2019-03-08T13:37:21.390Z,56.70
2019-03-08T13:39:50.766Z,58.00
2019-03-08T13:42:20.159Z,58.40
2019-03-08T13:44:49.770Z,58.00
2019-03-08T13:47:19.141Z,58.20
2019-03-08T13:49:48.795Z,59.90
2019-03-08T13:52:18.186Z,67.30
2019-03-08T13:54:47.495Z,72.10
2019-03-08T13:57:16.935Z,85.00
2019-03-08T13:59:49.109Z,91.50
2019-03-08T14:02:18.497Z,99.90
2019-03-08T14:04:48.131Z,99.90
2019-03-08T14:07:18.694Z,99.70
2019-03-08T14:09:48.111Z,95.30
2019-03-08T14:12:17.419Z,97.10
2019-03-08T14:14:47.125Z,96.60
2019-03-08T14:17:16.737Z,96.80
2019-03-08T14:19:46.411Z,97.40
2019-03-08T14:22:17.592Z,98.80
2019-03-08T14:24:47.681Z,97.30
2019-03-08T14:27:17.152Z,96.20
2019-03-08T14:29:46.535Z,98.10
2019-03-08T14:32:16.402Z,99.90
2019-03-08T14:34:49.610Z,99.90
2019-03-08T14:37:19.940Z,99.90
2019-03-08T14:39:48.134Z,99.90
2019-03-08T14:42:22.125Z,99.90
2019-03-08T14:44:53.120Z,99.90
2019-03-08T14:47:33.310Z,99.90
2019-03-08T14:50:01.089Z,99.20
2019-03-08T14:52:30.488Z,94.30
2019-03-08T14:55:00.180Z,93.30
2019-03-08T14:57:31.288Z,97.50
2019-03-08T15:00:00.654Z,99.30
2019-03-08T15:02:30.020Z,97.30
2019-03-08T15:04:59.444Z,95.40
2019-03-08T15:07:28.813Z,95.70
2019-03-08T15:09:58.197Z,90.90
2019-03-08T15:12:27.570Z,87.50
2019-03-08T15:14:57.289Z,85.00
2019-03-08T15:17:29.791Z,83.10
2019-03-08T15:19:59.235Z,80.90
2019-03-08T15:22:28.608Z,70.80
2019-03-08T15:24:57.993Z,68.20
2019-03-08T15:27:27.447Z,62.50
2019-03-08T15:29:56.832Z,66.90
2019-03-08T15:32:26.274Z,72.20
2019-03-08T15:34:57.180Z,70.90
2019-03-08T15:37:28.211Z,68.00
2019-03-08T15:39:59.107Z,68.90
2019-03-08T15:42:28.490Z,82.70
2019-03-08T15:44:57.986Z,93.50
2019-03-08T15:47:27.383Z,99.90
2019-03-08T15:49:56.825Z,99.90
2019-03-08T15:52:26.307Z,99.90
2019-03-08T15:54:58.886Z,99.90
2019-03-08T15:57:30.759Z,99.90
2019-03-08T16:00:00.322Z,99.90
2019-03-08T16:02:30.015Z,99.90
2019-03-08T16:05:01.049Z,99.90
2019-03-08T16:07:30.440Z,99.90
2019-03-08T16:10:00.786Z,99.90
2019-03-08T16:12:31.265Z,99.90
2019-03-08T16:15:02.299Z,99.90
2019-03-08T16:17:33.324Z,99.90
2019-03-08T16:20:03.852Z,99.90
2019-03-08T16:22:33.378Z,99.90
2019-03-08T16:25:06.614Z,99.90
2019-03-08T16:27:34.264Z,99.90
2019-03-08T16:30:11.638Z,99.90
2019-03-08T16:32:50.659Z,99.90
2019-03-08T16:35:19.986Z,99.90
2019-03-08T16:38:09.749Z,99.90
2019-03-08T16:40:55.886Z,99.90
2019-03-08T16:43:26.860Z,99.90
2019-03-08T16:45:59.417Z,99.90
2019-03-08T16:48:30.242Z,99.90
2019-03-08T16:51:01.243Z,99.90
2019-03-08T16:53:39.080Z,99.90
2019-03-08T16:56:13.399Z,99.90
2019-03-08T16:58:50.211Z,99.90
2019-03-08T17:01:21.182Z,99.90
2019-03-08T17:04:01.393Z,99.90
2019-03-08T17:06:32.414Z,99.90
2019-03-08T17:09:16.925Z,99.90
2019-03-08T17:11:48.769Z,99.90
2019-03-08T17:14:28.739Z,99.90
2019-03-08T17:17:07.146Z,99.90
2019-03-08T17:19:54.343Z,99.90
2019-03-08T17:22:31.284Z,99.90
2019-03-08T17:25:17.720Z,99.90
2019-03-08T17:28:00.578Z,99.90
2019-03-08T17:30:34.607Z,99.90
2019-03-08T17:33:11.774Z,99.90
2019-03-08T17:36:03.018Z,99.90
2019-03-08T17:41:33.190Z,99.90
2019-03-08T17:44:07.133Z,99.90
2019-03-08T17:46:43.682Z,99.90
2019-03-08T17:49:16.220Z,99.90
2019-03-08T17:51:59.331Z,99.90
2019-03-08T17:54:46.305Z,99.90
2019-03-08T17:57:22.313Z,99.90
2019-03-08T17:59:53.312Z,99.90
2019-03-08T18:02:28.995Z,99.90
2019-03-08T18:05:09.218Z,99.90
2019-03-08T18:07:50.111Z,99.90
2019-03-08T18:10:37.347Z,99.90
2019-03-08T18:13:08.449Z,99.90
2019-03-08T18:15:42.336Z,99.90
2019-03-08T18:18:13.413Z,99.90
2019-03-08T18:20:47.156Z,99.90
2019-03-08T18:23:34.928Z,99.90
2019-03-08T18:26:17.971Z,99.90
2019-03-08T18:28:54.740Z,99.90
2019-03-08T18:31:32.305Z,99.90
2019-03-08T18:34:03.308Z,99.90
2019-03-08T18:36:51.407Z,99.90
2019-03-08T18:39:22.425Z,99.90
2019-03-08T18:41:56.524Z,99.90
2019-03-08T18:44:44.088Z,99.90
2019-03-08T18:47:24.071Z,99.90
2019-03-08T18:49:58.070Z,99.90
2019-03-08T18:52:32.242Z,99.90
2019-03-08T18:55:19.651Z,99.90
2019-03-08T18:58:02.798Z,99.90
2019-03-08T19:00:33.746Z,99.90
2019-03-08T19:03:04.893Z,99.90
2019-03-08T19:05:42.255Z,99.90
2019-03-08T19:08:29.799Z,99.90
2019-03-08T19:11:00.870Z,99.90
2019-03-08T19:13:44.117Z,99.90
2019-03-08T19:16:17.882Z,99.90
2019-03-08T19:18:51.329Z,99.90
2019-03-08T19:21:22.289Z,99.90
2019-03-08T19:23:56.053Z,99.90
2019-03-08T19:26:28.640Z,99.90
2019-03-08T19:29:12.699Z,99.90
2019-03-08T19:31:45.240Z,99.90
2019-03-08T19:34:19.626Z,99.90
2019-03-08T19:37:07.028Z,99.90
2019-03-08T19:39:46.729Z,99.90
2019-03-08T19:42:20.689Z,99.90
2019-03-08T19:45:10.398Z,99.90
2019-03-08T19:47:41.402Z,99.90
2019-03-08T19:50:18.335Z,99.90
2019-03-08T19:53:07.448Z,99.90
2019-03-08T19:55:40.178Z,99.90
2019-03-08T19:58:14.155Z,99.90
2019-03-08T20:01:01.637Z,99.90
2019-03-08T20:03:44.316Z,99.90
2019-03-08T20:06:18.432Z,99.90
2019-03-08T20:08:49.522Z,99.90
2019-03-08T20:11:35.477Z,99.90
2019-03-08T20:14:09.274Z,99.90
2019-03-08T20:16:42.937Z,99.90
2019-03-08T20:19:17.142Z,99.90
2019-03-08T20:21:48.560Z,99.90
2019-03-08T20:24:22.240Z,99.90
2019-03-08T20:26:53.275Z,99.90
2019-03-08T20:29:24.339Z,99.90
2019-03-08T20:31:55.420Z,99.90
2019-03-08T20:34:45.718Z,99.90
2019-03-08T20:37:22.308Z,99.90
2019-03-08T20:39:56.800Z,99.90
2019-03-08T20:42:27.850Z,99.90
2019-03-08T20:45:01.515Z,99.90
2019-03-08T20:47:32.775Z,99.90
2019-03-08T20:50:02.652Z,99.90
2019-03-08T20:52:32.036Z,99.90
2019-03-08T20:55:02.726Z,99.90
2019-03-08T20:57:32.039Z,99.90
2019-03-08T21:00:01.483Z,99.90
2019-03-08T21:02:31.141Z,99.90
2019-03-08T21:05:00.539Z,99.90
2019-03-08T21:07:29.889Z,99.90
2019-03-08T21:09:59.282Z,99.90
2019-03-08T21:12:28.656Z,99.90
2019-03-08T21:14:58.022Z,99.90
2019-03-08T21:17:27.414Z,99.90
2019-03-08T21:19:59.855Z,99.90
2019-03-08T21:22:29.232Z,99.90
2019-03-08T21:24:59.932Z,99.90
2019-03-08T21:27:29.788Z,99.90
2019-03-08T21:29:59.229Z,99.90
2019-03-08T21:32:28.678Z,99.90
2019-03-08T21:34:58.081Z,99.90
2019-03-08T21:37:27.443Z,99.90
2019-03-08T21:39:56.840Z,99.90
2019-03-08T21:42:26.200Z,99.90
2019-03-08T21:44:55.596Z,99.90
2019-03-08T21:47:25.050Z,99.90
2019-03-08T21:49:54.446Z,99.90
2019-03-08T21:52:24.932Z,99.90
2019-03-08T21:54:54.390Z,99.90
2019-03-08T21:57:23.765Z,99.90
2019-03-08T21:59:53.164Z,99.90
2019-03-08T22:02:22.561Z,99.90
2019-03-08T22:04:52.626Z,99.90
2019-03-08T22:07:22.000Z,99.90
2019-03-08T22:09:59.100Z,99.90
2019-03-08T22:12:28.495Z,99.90
2019-03-08T22:14:57.969Z,99.90
2019-03-08T22:17:30.881Z,99.90
2019-03-08T22:20:00.315Z,99.90
2019-03-08T22:22:29.701Z,99.90
2019-03-08T22:25:08.714Z,99.90
2019-03-08T22:27:38.391Z,99.90
2019-03-08T22:30:10.850Z,99.90
2019-03-08T22:32:40.308Z,99.90
2019-03-08T22:35:09.812Z,99.90
2019-03-08T22:37:39.183Z,99.90
2019-03-08T22:40:10.057Z,99.90
2019-03-08T22:42:40.074Z,99.90
2019-03-08T22:45:11.665Z,99.90
2019-03-08T22:47:41.041Z,99.90
2019-03-08T22:50:13.579Z,99.90
2019-03-08T22:52:43.220Z,99.90
2019-03-08T22:55:14.024Z,99.90
2019-03-08T22:57:43.627Z,99.90
2019-03-08T23:00:39.729Z,99.90
2019-03-08T23:03:09.252Z,99.90
2019-03-08T23:05:38.681Z,99.90
2019-03-08T23:08:08.345Z,99.90
2019-03-08T23:10:37.853Z,99.90
2019-03-08T23:13:12.234Z,99.90
2019-03-08T23:15:41.756Z,99.90
2019-03-08T23:18:11.212Z,99.90
2019-03-08T23:20:40.972Z,99.90
2019-03-08T23:23:10.416Z,99.90
2019-03-08T23:25:39.834Z,99.90
2019-03-08T23:28:27.469Z,99.90
2019-03-08T23:31:04.481Z,99.90
2019-03-08T23:33:34.080Z,99.90
2019-03-08T23:36:03.453Z,99.90
2019-03-08T23:38:32.836Z,99.90
2019-03-08T23:41:03.795Z,99.90
2019-03-08T23:43:33.416Z,99.90
2019-03-08T23:46:03.033Z,99.90
2019-03-08T23:48:32.719Z,99.90
2019-03-08T23:51:02.057Z,99.90
2019-03-08T23:53:31.439Z,99.90
2019-03-08T23:56:00.727Z,99.90
2019-03-08T23:58:30.559Z,99.90
